Time;durP1;ratioP1;P1;durP2;ratioP2;P2;SDS_P1;SDS_P2;PMS_P1;PMS_P2;Temp;Humidity;BMP_temperature;BMP_pressure;BME280_temperature;BME280_humidity;BME280_pressure;Samples;Min_cycle;Max_cycle;Signal;HPM_P1;HPM_P2
2022/04/12 00:00:30;;;;;;;7.78;4.07;;;6.90;99.90;;;;;;4979796;28;20125;-79
2022/04/12 00:02:56;;;;;;;7.63;3.67;;;6.80;99.90;;;;;;4977704;28;20421;-80
2022/04/12 00:05:22;;;;;;;5.95;3.88;;;6.80;99.90;;;;;;4982514;28;20118;-79
2022/04/12 00:07:47;;;;;;;5.72;3.40;;;7.30;99.90;;;;;;4976001;28;20530;-80
2022/04/12 00:10:14;;;;;;;7.63;3.72;;;6.80;99.90;;;;;;4969380;28;20042;-79
2022/04/12 00:12:40;;;;;;;5.55;3.90;;;6.70;99.90;;;;;;4950184;28;20500;-79
2022/04/12 00:15:07;;;;;;;7.65;3.95;;;6.70;99.90;;;;;;4963647;28;20046;-79
2022/04/12 00:20:19;;;;;;;6.70;4.47;;;6.60;99.90;;;;;;4983784;28;20064;-80
2022/04/12 00:22:45;;;;;;;6.10;3.53;;;6.70;99.90;;;;;;4960845;28;20550;-79
2022/04/12 00:25:11;;;;;;;8.20;4.00;;;6.60;99.90;;;;;;4982754;28;20070;-80
2022/04/12 00:27:38;;;;;;;8.18;4.38;;;6.80;99.90;;;;;;4981879;28;20503;-79
2022/04/12 00:30:06;;;;;;;7.10;3.83;;;7.60;99.90;;;;;;4981075;28;20577;-79
2022/04/12 00:32:32;;;;;;;4.43;3.70;;;6.60;99.90;;;;;;4978619;28;20043;-78
2022/04/12 00:34:57;;;;;;;8.43;3.70;;;6.50;99.90;;;;;;4980678;28;20498;-79
2022/04/12 00:37:23;;;;;;;8.70;4.07;;;6.50;99.90;;;;;;4972821;28;20042;-79
2022/04/12 00:39:48;;;;;;;8.65;3.97;;;6.40;99.90;;;;;;4981036;28;20149;-78
2022/04/12 00:42:14;;;;;;;7.40;4.05;;;6.50;99.90;;;;;;4962165;28;20081;-78
2022/04/12 00:44:40;;;;;;;7.32;3.50;;;6.50;99.90;;;;;;4981056;28;20045;-79
2022/04/12 00:47:05;;;;;;;5.65;3.78;;;7.90;99.90;;;;;;4963683;28;20050;-79
2022/04/12 00:49:31;;;;;;;6.18;3.88;;;6.50;99.90;;;;;;4979429;28;20076;-79
2022/04/12 00:51:58;;;;;;;5.00;3.92;;;6.40;99.90;;;;;;4974214;28;20085;-79
2022/04/12 00:54:25;;;;;;;10.43;4.47;;;6.40;99.90;;;;;;4984252;28;20038;-79
2022/04/12 00:56:52;;;;;;;10.13;5.32;;;6.40;99.90;;;;;;4962923;28;20121;-79
2022/04/12 00:59:18;;;;;;;5.57;4.35;;;6.40;99.90;;;;;;4980199;28;20042;-79
2022/04/12 01:01:44;;;;;;;6.03;4.20;;;6.30;99.90;;;;;;4982574;28;20274;-79
2022/04/12 01:04:10;;;;;;;4.65;3.95;;;6.30;99.90;;;;;;4963020;28;20039;-79
2022/04/12 01:06:36;;;;;;;7.10;4.18;;;6.30;99.90;;;;;;4961959;28;20518;-79
2022/04/12 01:09:05;;;;;;;5.70;3.88;;;6.30;99.90;;;;;;4980083;28;20050;-79
2022/04/12 01:11:32;;;;;;;5.72;3.72;;;6.20;99.90;;;;;;4982048;28;20031;-79
2022/04/12 01:13:58;;;;;;;8.02;5.03;;;6.30;99.90;;;;;;4982726;28;20038;-79
2022/04/12 01:16:24;;;;;;;6.32;4.43;;;7.50;99.90;;;;;;4961203;28;20456;-79
2022/04/12 01:18:50;;;;;;;6.72;4.15;;;6.20;99.90;;;;;;4977632;28;20042;-79
2022/04/12 01:21:15;;;;;;;9.70;4.85;;;6.20;99.90;;;;;;4948203;28;20051;-79
2022/04/12 01:24:01;;;;;;;10.45;5.18;;;6.10;99.90;;;;;;4965008;28;20050;-79
2022/04/12 01:26:26;;;;;;;7.32;4.75;;;5.90;99.90;;;;;;4961286;28;20047;-79
2022/04/12 01:28:52;;;;;;;8.02;5.63;;;6.20;99.90;;;;;;4977004;28;20515;-79
2022/04/12 01:31:18;;;;;;;9.30;4.75;;;8.10;99.90;;;;;;4967877;28;20129;-79
2022/04/12 01:33:43;;;;;;;7.03;5.10;;;7.40;99.90;;;;;;4960881;28;20047;-79
2022/04/12 01:36:09;;;;;;;13.18;6.13;;;6.10;99.90;;;;;;4962888;28;20085;-79
2022/04/12 01:38:35;;;;;;;7.93;5.32;;;6.20;99.90;;;;;;4964550;28;20050;-79
2022/04/12 01:41:02;;;;;;;10.90;6.07;;;6.10;99.90;;;;;;4980069;28;20455;-79
2022/04/12 01:43:28;;;;;;;9.23;5.45;;;6.20;99.90;;;;;;4977984;28;20182;-79
2022/04/12 01:45:54;;;;;;;6.40;4.95;;;6.10;99.90;;;;;;4977614;28;20503;-79
2022/04/12 01:48:19;;;;;;;12.88;5.82;;;5.90;99.90;;;;;;4984939;28;20137;-80
2022/04/12 01:50:45;;;;;;;9.35;5.93;;;7.60;99.90;;;;;;4980279;28;20414;-79
2022/04/12 01:53:10;;;;;;;8.55;4.93;;;6.10;99.90;;;;;;4979829;28;20414;-79
2022/04/12 01:55:36;;;;;;;8.80;5.85;;;5.90;99.90;;;;;;4947053;28;20365;-79
2022/04/12 01:58:02;;;;;;;6.97;5.65;;;5.80;99.90;;;;;;4981977;28;20973;-79
2022/04/12 02:00:27;;;;;;;10.27;6.50;;;6.00;99.90;;;;;;4976434;28;20042;-79
2022/04/12 02:02:53;;;;;;;10.65;5.72;;;6.00;99.90;;;;;;4979148;28;20049;-79
2022/04/12 02:05:20;;;;;;;13.43;6.03;;;6.00;99.90;;;;;;4977638;28;20050;-79
2022/04/12 02:07:45;;;;;;;10.05;5.80;;;6.00;99.90;;;;;;4975963;28;20283;-79
2022/04/12 02:10:11;;;;;;;11.52;5.47;;;5.90;99.90;;;;;;4979789;28;20038;-79
2022/04/12 02:12:37;;;;;;;9.55;6.32;;;5.90;99.90;;;;;;4981156;28;20113;-79
2022/04/12 02:15:03;;;;;;;9.32;6.72;;;5.90;99.90;;;;;;4981698;28;20045;-79
2022/04/12 02:17:29;;;;;;;11.68;5.70;;;5.90;99.90;;;;;;4980643;28;20047;-78
2022/04/12 02:19:55;;;;;;;11.13;6.43;;;5.80;99.90;;;;;;4979678;28;20512;-78
2022/04/12 02:22:21;;;;;;;8.40;5.75;;;5.90;99.90;;;;;;4973395;28;20113;-79
2022/04/12 02:24:46;;;;;;;10.73;6.75;;;5.90;99.90;;;;;;4958525;28;20121;-79
2022/04/12 02:27:12;;;;;;;8.77;5.90;;;5.90;99.90;;;;;;4979266;28;20137;-79
2022/04/12 02:29:38;;;;;;;10.40;6.43;;;5.90;99.90;;;;;;4962565;28;20501;-79
2022/04/12 02:32:04;;;;;;;12.05;6.63;;;5.90;99.90;;;;;;4981139;28;20069;-79
2022/04/12 02:34:29;;;;;;;7.70;6.43;;;5.80;99.90;;;;;;4980306;28;21102;-79
2022/04/12 02:36:55;;;;;;;12.82;6.22;;;7.70;99.90;;;;;;4962882;28;20048;-78
2022/04/12 02:39:21;;;;;;;9.20;6.80;;;5.80;99.90;;;;;;4961430;28;20082;-79
2022/04/12 02:41:48;;;;;;;9.98;6.72;;;5.60;99.90;;;;;;4976099;28;20101;-79
2022/04/12 02:44:14;;;;;;;9.40;6.70;;;5.80;99.90;;;;;;4978782;28;20051;-79
2022/04/12 02:46:40;;;;;;;9.57;6.80;;;5.50;99.90;;;;;;4985612;28;20039;-79
2022/04/12 02:49:06;;;;;;;9.82;7.22;;;5.70;99.90;;;;;;4978751;28;20054;-78
2022/04/12 02:51:32;;;;;;;8.70;6.45;;;5.80;99.90;;;;;;4959604;28;20538;-78
2022/04/12 02:53:57;;;;;;;11.75;7.00;;;5.30;99.90;;;;;;4984733;28;20407;-78
2022/04/12 02:56:23;;;;;;;8.40;6.50;;;5.80;99.90;;;;;;4978871;28;20057;-78
2022/04/12 02:58:49;;;;;;;10.98;7.00;;;5.80;99.90;;;;;;4976329;28;20042;-78
2022/04/12 03:01:14;;;;;;;10.30;7.18;;;7.30;99.90;;;;;;4982358;28;20049;-78
2022/04/12 03:03:40;;;;;;;8.32;6.55;;;5.40;99.90;;;;;;4957626;28;20478;-79
2022/04/12 03:06:06;;;;;;;9.23;7.43;;;5.70;99.90;;;;;;4980034;28;20039;-78
2022/04/12 03:08:32;;;;;;;9.82;7.07;;;5.80;99.90;;;;;;4977217;28;20525;-79
2022/04/12 03:10:57;;;;;;;10.35;6.70;;;5.80;99.90;;;;;;4959241;28;20538;-79
2022/04/12 03:13:23;;;;;;;10.35;6.78;;;5.70;99.90;;;;;;4978519;28;20419;-79
2022/04/12 03:15:49;;;;;;;12.85;7.43;;;6.90;99.90;;;;;;4980915;28;20045;-78
2022/04/12 03:18:16;;;;;;;13.60;7.22;;;5.60;99.90;;;;;;4968036;28;20078;-78
2022/04/12 03:20:42;;;;;;;9.10;7.43;;;5.30;99.90;;;;;;4979365;28;20478;-78
2022/04/12 03:23:08;;;;;;;9.18;7.07;;;7.50;99.90;;;;;;4957978;28;20411;-78
2022/04/12 03:25:34;;;;;;;9.32;7.25;;;7.60;99.90;;;;;;4979894;28;20046;-78
2022/04/12 03:28:00;;;;;;;9.88;6.90;;;5.40;99.90;;;;;;4980470;28;20065;-78
2022/04/12 03:30:26;;;;;;;11.82;7.10;;;4.90;99.90;;;;;;4962693;28;20160;-78
2022/04/12 03:32:52;;;;;;;10.50;7.45;;;5.40;99.90;;;;;;4975090;28;20047;-78
2022/04/12 03:35:17;;;;;;;10.15;7.45;;;5.40;99.90;;;;;;4978349;28;20045;-78
2022/04/12 03:37:43;;;;;;;10.10;7.57;;;5.70;99.90;;;;;;4980547;28;20344;-78
2022/04/12 03:40:09;;;;;;;10.40;7.20;;;5.20;99.90;;;;;;4977049;28;20089;-78
2022/04/12 03:42:35;;;;;;;8.65;7.05;;;5.50;99.90;;;;;;4987328;28;20038;-78
2022/04/12 03:45:01;;;;;;;13.48;7.47;;;5.50;99.90;;;;;;4983432;28;20030;-78
2022/04/12 03:47:26;;;;;;;10.32;7.72;;;5.50;99.90;;;;;;4983426;28;20455;-78
2022/04/12 03:49:52;;;;;;;11.18;7.47;;;6.00;99.90;;;;;;4979137;28;20080;-78
2022/04/12 03:52:18;;;;;;;11.13;7.85;;;5.20;99.90;;;;;;4982679;28;20084;-78
2022/04/12 03:54:43;;;;;;;11.65;8.45;;;6.70;99.90;;;;;;4979709;28;20586;-78
2022/04/12 03:57:09;;;;;;;8.18;7.38;;;5.40;99.90;;;;;;4966714;28;20101;-79
2022/04/12 03:59:35;;;;;;;11.25;7.82;;;5.20;99.90;;;;;;4979758;28;20097;-78
2022/04/12 04:02:01;;;;;;;10.00;8.23;;;5.40;99.90;;;;;;4982155;28;20368;-79
2022/04/12 04:04:26;;;;;;;13.27;7.60;;;5.40;99.90;;;;;;4982838;28;20416;-79
2022/04/12 04:06:52;;;;;;;10.93;8.13;;;5.40;99.90;;;;;;4987428;28;20042;-79
2022/04/12 04:09:17;;;;;;;12.23;8.15;;;5.40;99.90;;;;;;4982053;28;20085;-79
2022/04/12 04:11:43;;;;;;;13.80;7.88;;;5.40;99.90;;;;;;4979396;28;20077;-79
2022/04/12 04:14:10;;;;;;;11.43;8.23;;;5.40;99.90;;;;;;4981612;28;20050;-79
2022/04/12 04:16:38;;;;;;;16.25;8.32;;;5.20;99.90;;;;;;4982789;28;20042;-79
2022/04/12 04:19:06;;;;;;;17.85;8.23;;;5.40;99.90;;;;;;4949847;28;20501;-79
2022/04/12 04:21:31;;;;;;;12.73;7.88;;;5.30;99.90;;;;;;4982074;28;20478;-79
2022/04/12 04:23:57;;;;;;;15.63;7.53;;;5.40;99.90;;;;;;4982193;28;20065;-79
2022/04/12 04:26:23;;;;;;;13.25;7.95;;;5.40;99.90;;;;;;4986261;28;20479;-79
2022/04/12 04:28:49;;;;;;;10.00;8.38;;;5.40;99.90;;;;;;4961886;28;20081;-79
2022/04/12 04:31:15;;;;;;;10.63;7.57;;;5.30;99.90;;;;;;4965839;28;20045;-79
2022/04/12 04:33:41;;;;;;;12.30;8.07;;;5.30;99.90;;;;;;4977318;28;20552;-79
2022/04/12 04:36:06;;;;;;;11.75;8.75;;;4.90;99.90;;;;;;4981550;28;20054;-79
2022/04/12 04:38:32;;;;;;;9.73;8.00;;;7.10;99.90;;;;;;4979915;28;20046;-79
2022/04/12 04:40:58;;;;;;;12.85;8.82;;;5.40;99.90;;;;;;4979953;28;20042;-79
2022/04/12 04:43:23;;;;;;;13.68;9.50;;;5.30;99.90;;;;;;4963601;28;20057;-79
2022/04/12 04:45:49;;;;;;;12.02;8.77;;;5.30;99.90;;;;;;4983414;28;20030;-79
2022/04/12 04:48:15;;;;;;;14.02;8.43;;;6.10;99.90;;;;;;4982342;28;20053;-79
2022/04/12 04:50:41;;;;;;;9.88;8.40;;;5.00;99.90;;;;;;4981254;28;20064;-78
2022/04/12 04:53:09;;;;;;;14.00;8.88;;;5.30;99.90;;;;;;4985242;28;20046;-78
2022/04/12 04:55:35;;;;;;;12.07;8.13;;;5.00;99.90;;;;;;4981396;28;20050;-79
2022/04/12 04:58:02;;;;;;;11.75;8.63;;;5.00;99.90;;;;;;4980305;28;20498;-79
2022/04/12 05:00:31;;;;;;;11.02;8.80;;;5.20;99.90;;;;;;4980792;28;20034;-79
2022/04/12 05:02:57;;;;;;;10.48;8.95;;;5.30;99.90;;;;;;4983689;28;20042;-78
2022/04/12 05:05:23;;;;;;;12.40;8.48;;;5.30;99.90;;;;;;4981157;28;20093;-77
2022/04/12 05:07:51;;;;;;;11.20;9.25;;;5.30;99.90;;;;;;4980926;28;20423;-78
2022/04/12 05:10:28;;;;;;;11.98;8.85;;;5.30;99.90;;;;;;4979819;28;20055;-78
2022/04/12 05:12:54;;;;;;;10.63;8.18;;;5.30;99.90;;;;;;4978076;28;20035;-78
2022/04/12 05:15:20;;;;;;;13.90;9.23;;;5.30;99.90;;;;;;4979099;28;20053;-78
2022/04/12 05:17:50;;;;;;;12.98;9.32;;;5.30;99.90;;;;;;4964334;28;20034;-77
2022/04/12 05:20:16;;;;;;;12.10;8.02;;;5.30;99.90;;;;;;4981676;28;20133;-78
2022/04/12 05:22:42;;;;;;;9.95;8.98;;;4.90;99.90;;;;;;4979552;28;20050;-78
2022/04/12 05:25:08;;;;;;;12.65;8.73;;;7.70;99.90;;;;;;4981084;28;20068;-78
2022/04/12 05:27:34;;;;;;;12.60;8.75;;;5.50;99.90;;;;;;4963707;28;20042;-78
2022/04/12 05:30:01;;;;;;;10.18;8.55;;;5.50;99.90;;;;;;4986557;28;20081;-78
2022/04/12 05:32:27;;;;;;;12.48;8.43;;;5.40;99.90;;;;;;4989387;28;20045;-77
2022/04/12 05:34:52;;;;;;;12.20;8.35;;;5.60;99.90;;;;;;4959977;28;20426;-77
2022/04/12 05:37:19;;;;;;;15.55;8.52;;;5.60;99.90;;;;;;4977916;28;20043;-78
2022/04/12 05:39:45;;;;;;;13.48;9.02;;;5.70;99.90;;;;;;4979766;28;20037;-78
2022/04/12 05:42:10;;;;;;;10.85;8.10;;;5.70;99.90;;;;;;4981020;28;20042;-78
2022/04/12 05:44:36;;;;;;;11.80;8.77;;;5.80;99.90;;;;;;4979628;28;20050;-78
2022/04/12 05:47:03;;;;;;;10.80;7.43;;;5.80;99.90;;;;;;4982748;28;20403;-78
2022/04/12 05:49:29;;;;;;;11.45;8.00;;;5.90;99.90;;;;;;4979057;28;20502;-78
2022/04/12 05:51:55;;;;;;;10.85;9.00;;;5.90;99.90;;;;;;4978807;28;20077;-78
2022/04/12 05:54:22;;;;;;;11.68;8.52;;;6.00;99.90;;;;;;4977661;28;20066;-78
2022/04/12 05:56:47;;;;;;;12.55;8.82;;;6.00;99.90;;;;;;4981518;28;20440;-78
2022/04/12 05:59:13;;;;;;;11.38;7.85;;;6.10;99.90;;;;;;4980958;28;20101;-78
2022/04/12 06:01:38;;;;;;;10.85;8.18;;;6.10;99.90;;;;;;4960811;28;20442;-78
2022/04/12 06:04:05;;;;;;;13.13;9.40;;;6.10;99.90;;;;;;4978327;28;20137;-78
2022/04/12 06:06:32;;;;;;;14.93;9.13;;;6.20;99.90;;;;;;4978152;28;20042;-78
2022/04/12 06:08:58;;;;;;;13.93;8.32;;;6.20;99.90;;;;;;4981650;28;20410;-78
2022/04/12 06:11:24;;;;;;;11.35;7.88;;;6.30;99.90;;;;;;4981640;28;20046;-78
2022/04/12 06:13:49;;;;;;;12.25;8.40;;;6.30;99.90;;;;;;4980231;28;20057;-79
2022/04/12 06:16:15;;;;;;;11.90;8.75;;;7.60;99.90;;;;;;4978720;28;20047;-79
2022/04/12 06:18:41;;;;;;;13.75;9.80;;;6.40;99.90;;;;;;4983656;28;20089;-79
2022/04/12 06:21:06;;;;;;;10.77;7.82;;;6.40;99.90;;;;;;4960199;28;20038;-79
2022/04/12 06:23:33;;;;;;;12.02;8.10;;;6.40;99.90;;;;;;4275879;28;10000685;-79
2022/04/12 06:25:59;;;;;;;12.27;8.57;;;;;;;;;;4977728;28;20150;-80
2022/04/12 06:28:24;;;;;;;13.38;8.73;;;6.50;99.90;;;;;;4985379;28;20042;-78
2022/04/12 06:30:50;;;;;;;14.23;9.32;;;6.50;99.90;;;;;;4958743;28;20030;-79
2022/04/12 06:33:15;;;;;;;11.85;8.98;;;6.60;99.90;;;;;;4975797;28;20078;-79
2022/04/12 06:35:41;;;;;;;12.90;9.27;;;6.70;99.90;;;;;;4965430;28;20034;-78
2022/04/12 06:38:08;;;;;;;14.38;9.38;;;6.70;99.90;;;;;;4981244;28;20344;-79
2022/04/12 06:40:35;;;;;;;14.00;9.35;;;6.80;99.90;;;;;;4979240;28;20050;-79
2022/04/12 06:43:01;;;;;;;13.30;9.15;;;6.40;99.90;;;;;;4976674;28;20052;-78
2022/04/12 06:45:28;;;;;;;10.95;8.00;;;6.80;99.90;;;;;;4966730;28;20173;-79
2022/04/12 06:47:58;;;;;;;12.70;8.60;;;6.80;99.90;;;;;;4986781;28;20797;-79
2022/04/12 06:50:26;;;;;;;12.18;8.65;;;6.90;99.90;;;;;;4982689;28;20418;-79
2022/04/12 06:52:56;;;;;;;11.15;8.30;;;6.80;99.90;;;;;;4972847;28;20034;-79
2022/04/12 06:55:22;;;;;;;15.15;8.63;;;6.90;99.90;;;;;;4980705;28;20045;-79
2022/04/12 06:57:48;;;;;;;13.10;9.20;;;7.00;99.90;;;;;;4978589;28;20505;-79
2022/04/12 07:00:14;;;;;;;12.48;9.18;;;6.90;99.90;;;;;;4980166;28;20045;-79
2022/04/12 07:02:40;;;;;;;14.40;9.38;;;7.10;99.90;;;;;;4990564;28;20050;-80
2022/04/12 07:05:07;;;;;;;9.98;8.57;;;7.00;99.90;;;;;;4966882;28;20045;-79
2022/04/12 07:07:36;;;;;;;12.48;8.95;;;7.10;99.90;;;;;;4970627;28;20081;-79
2022/04/12 07:10:06;;;;;;;10.25;8.05;;;7.00;99.90;;;;;;4978248;28;20034;-80
2022/04/12 07:12:32;;;;;;;11.38;9.18;;;7.10;99.90;;;;;;4972474;28;20046;-79
2022/04/12 07:14:58;;;;;;;12.23;9.77;;;6.90;99.90;;;;;;4979118;28;20473;-79
2022/04/12 07:17:23;;;;;;;13.10;8.98;;;6.70;99.90;;;;;;4988224;28;20528;-80
2022/04/12 07:19:49;;;;;;;12.85;8.85;;;7.20;99.90;;;;;;4979659;28;20053;-79
2022/04/12 07:22:14;;;;;;;14.27;8.75;;;7.20;99.90;;;;;;4985839;28;20486;-79
2022/04/12 07:24:40;;;;;;;11.82;8.88;;;7.20;99.90;;;;;;4963609;28;20051;-79
2022/04/12 07:27:06;;;;;;;11.32;9.00;;;7.30;99.90;;;;;;4965687;28;20081;-79
2022/04/12 07:29:31;;;;;;;12.05;9.10;;;7.40;99.90;;;;;;4988668;28;20039;-79
2022/04/12 07:31:57;;;;;;;15.07;9.77;;;7.40;99.90;;;;;;4962301;28;20562;-79
2022/04/12 07:34:23;;;;;;;11.25;9.35;;;7.50;99.90;;;;;;4979843;28;20046;-79
2022/04/12 07:36:53;;;;;;;12.68;9.60;;;7.60;99.90;;;;;;4964067;28;20137;-79
2022/04/12 07:39:20;;;;;;;11.77;8.85;;;7.70;99.90;;;;;;4961825;28;20051;-79
2022/04/12 07:41:47;;;;;;;10.68;8.85;;;7.80;99.90;;;;;;4963187;28;20055;-79
2022/04/12 07:44:13;;;;;;;12.45;9.05;;;7.90;99.90;;;;;;4968747;28;20105;-79
2022/04/12 07:46:39;;;;;;;12.35;8.43;;;7.90;99.90;;;;;;4986676;28;20050;-79
2022/04/12 07:49:05;;;;;;;11.10;9.30;;;8.00;99.90;;;;;;4968428;28;20043;-79
2022/04/12 07:51:31;;;;;;;12.40;8.80;;;8.10;99.90;;;;;;4978054;28;20051;-79
2022/04/12 07:53:57;;;;;;;11.55;8.57;;;8.20;99.90;;;;;;4980698;28;20074;-79
2022/04/12 07:56:23;;;;;;;12.68;8.75;;;8.40;99.90;;;;;;4988872;28;20081;-79
2022/04/12 07:58:48;;;;;;;12.18;8.93;;;8.40;99.90;;;;;;4976261;28;20376;-79
2022/04/12 08:01:14;;;;;;;12.73;8.68;;;8.50;99.90;;;;;;4981027;28;20042;-79
2022/04/12 08:03:40;;;;;;;11.23;8.75;;;8.70;99.90;;;;;;4985634;28;20136;-79
2022/04/12 08:06:06;;;;;;;11.10;8.23;;;8.90;99.90;;;;;;4977452;28;20402;-80
2022/04/12 08:08:32;;;;;;;11.95;9.52;;;8.90;99.90;;;;;;4962505;28;20046;-79
2022/04/12 08:10:58;;;;;;;11.88;9.10;;;9.00;99.90;;;;;;4977641;28;20454;-79
2022/04/12 08:13:24;;;;;;;10.25;8.80;;;9.10;99.90;;;;;;4983348;28;20057;-79
2022/04/12 08:15:49;;;;;;;11.55;9.05;;;9.20;99.90;;;;;;4962699;28;20414;-79
2022/04/12 08:18:16;;;;;;;11.80;8.40;;;9.30;99.90;;;;;;4987300;28;20421;-80
2022/04/12 08:20:41;;;;;;;17.23;9.13;;;9.40;99.90;;;;;;4979966;28;20042;-80
2022/04/12 08:23:07;;;;;;;11.82;8.65;;;9.50;99.90;;;;;;4978684;28;20557;-80
2022/04/12 08:25:33;;;;;;;12.05;8.65;;;9.60;99.90;;;;;;4966269;28;20505;-80
2022/04/12 08:27:59;;;;;;;11.82;9.10;;;9.80;99.90;;;;;;4967442;28;20046;-80
2022/04/12 08:30:24;;;;;;;11.55;8.77;;;9.80;99.90;;;;;;4965608;28;20072;-80
2022/04/12 08:32:50;;;;;;;13.25;8.77;;;10.00;99.90;;;;;;4966123;28;20086;-80
2022/04/12 08:35:15;;;;;;;10.90;8.23;;;10.10;99.90;;;;;;4989551;28;20042;-80
2022/04/12 08:37:41;;;;;;;11.38;8.13;;;10.10;99.90;;;;;;4970071;28;20053;-80
2022/04/12 08:40:07;;;;;;;9.80;8.80;;;10.30;99.90;;;;;;4983984;28;20045;-82
2022/04/12 08:42:33;;;;;;;16.25;8.90;;;10.40;99.90;;;;;;4983480;28;20054;-81
2022/04/12 08:45:01;;;;;;;10.55;7.97;;;10.50;99.90;;;;;;4987873;28;20483;-79
2022/04/12 08:47:28;;;;;;;10.82;8.43;;;10.60;99.90;;;;;;4966495;28;20046;-79
2022/04/12 08:49:54;;;;;;;14.63;8.27;;;10.60;99.90;;;;;;4297475;28;10000640;-79
2022/04/12 08:52:22;;;;;;;10.32;8.38;;;10.70;99.90;;;;;;4967665;28;20694;-80
2022/04/12 08:54:48;;;;;;;14.07;7.93;;;10.80;99.90;;;;;;4962879;28;20093;-79
2022/04/12 08:57:14;;;;;;;10.55;8.73;;;10.90;99.90;;;;;;4988756;28;20046;-79
2022/04/12 08:59:41;;;;;;;10.50;7.93;;;11.00;99.90;;;;;;4980728;28;20054;-80
2022/04/12 09:02:10;;;;;;;10.07;8.23;;;11.00;99.90;;;;;;4979942;28;20037;-80
2022/04/12 09:04:36;;;;;;;11.95;8.07;;;11.20;99.90;;;;;;4979851;28;20462;-79
2022/04/12 09:07:06;;;;;;;14.23;9.05;;;11.20;99.90;;;;;;4982981;28;20062;-79
2022/04/12 09:09:32;;;;;;;12.00;8.68;;;11.30;99.90;;;;;;4989208;28;20050;-79
2022/04/12 09:12:08;;;;;;;12.02;8.10;;;11.30;99.90;;;;;;4973647;28;20057;-80
2022/04/12 09:14:43;;;;;;;11.50;8.43;;;11.40;99.90;;;;;;4984352;28;20042;-80
2022/04/12 09:17:35;;;;;;;9.50;8.38;;;11.50;99.90;;;;;;4975612;28;20055;-79
2022/04/12 09:20:03;;;;;;;11.18;8.40;;;11.60;99.90;;;;;;4984057;28;20506;-79
2022/04/12 09:22:34;;;;;;;13.13;8.32;;;11.70;99.90;;;;;;4991027;28;20488;-79
2022/04/12 09:25:03;;;;;;;11.45;8.35;;;11.80;99.90;;;;;;4966559;28;20505;-79
2022/04/12 09:27:30;;;;;;;12.68;7.57;;;11.90;99.90;;;;;;4969478;28;20088;-80
2022/04/12 09:30:03;;;;;;;10.02;7.95;;;12.00;99.90;;;;;;4984753;28;20038;-79
2022/04/12 09:32:34;;;;;;;10.60;8.02;;;12.10;99.90;;;;;;4982379;28;20069;-80
2022/04/12 09:35:00;;;;;;;9.50;8.45;;;12.20;99.90;;;;;;4986030;28;20060;-79
2022/04/12 09:37:28;;;;;;;11.18;8.13;;;12.30;99.90;;;;;;4982114;28;20042;-80
2022/04/12 09:40:00;;;;;;;11.95;8.25;;;12.30;99.90;;;;;;4968975;28;20050;-80
2022/04/12 09:42:45;;;;;;;13.07;8.57;;;12.50;99.90;;;;;;4981956;28;20117;-80
2022/04/12 09:45:19;;;;;;;12.57;8.45;;;12.50;99.90;;;;;;4983485;28;20117;-80
2022/04/12 09:47:47;;;;;;;12.43;8.73;;;12.60;99.90;;;;;;4966414;28;20039;-80
2022/04/12 09:50:13;;;;;;;10.73;8.55;;;12.70;99.90;;;;;;4982892;28;20074;-80
2022/04/12 09:52:50;;;;;;;11.70;7.78;;;12.80;99.90;;;;;;4980260;28;20403;-80
2022/04/12 09:55:40;;;;;;;12.75;8.52;;;12.80;99.90;;;;;;4987522;28;20093;-80
2022/04/12 09:58:09;;;;;;;9.50;7.90;;;12.90;99.90;;;;;;4981532;28;20141;-80
2022/04/12 10:00:35;;;;;;;11.30;8.38;;;13.00;99.90;;;;;;4985372;28;20088;-80
2022/04/12 10:03:03;;;;;;;12.65;7.95;;;13.00;99.90;;;;;;4975780;28;20399;-79
2022/04/12 10:05:29;;;;;;;14.40;10.10;;;13.10;99.90;;;;;;4986886;28;20054;-80
2022/04/12 10:08:00;;;;;;;10.25;7.55;;;13.10;99.90;;;;;;4986097;28;20088;-79
2022/04/12 10:10:27;;;;;;;11.95;8.55;;;13.30;99.90;;;;;;4964819;28;20130;-80
2022/04/12 10:12:53;;;;;;;9.85;7.88;;;13.40;99.90;;;;;;4986396;28;20483;-80
2022/04/12 10:15:20;;;;;;;11.73;8.35;;;13.40;99.90;;;;;;4971885;28;20085;-80
2022/04/12 10:17:46;;;;;;;10.90;8.13;;;13.80;99.90;;;;;;4293571;28;10000691;-80
2022/04/12 10:20:14;;;;;;;14.18;7.63;;;13.60;99.90;;;;;;4965269;28;20058;-79
2022/04/12 10:22:40;;;;;;;12.15;8.77;;;13.70;99.90;;;;;;4981092;28;20052;-80
2022/04/12 10:25:08;;;;;;;11.32;7.75;;;13.80;99.90;;;;;;4979859;28;20046;-80
2022/04/12 10:27:34;;;;;;;10.40;8.00;;;14.00;99.90;;;;;;4979048;28;20057;-79
2022/04/12 10:30:27;;;;;;;9.95;8.50;;;14.10;99.90;;;;;;4977537;28;20047;-79
2022/04/12 10:33:03;;;;;;;11.38;8.73;;;14.20;99.90;;;;;;4978029;28;20051;-80
2022/04/12 10:35:31;;;;;;;13.90;8.90;;;14.30;99.90;;;;;;4979085;28;20050;-82
2022/04/12 10:37:57;;;;;;;9.48;7.90;;;14.40;99.90;;;;;;4983116;28;20042;-81
2022/04/12 10:40:24;;;;;;;13.27;7.55;;;14.50;99.90;;;;;;4983669;28;20482;-80
2022/04/12 10:42:50;;;;;;;11.43;8.43;;;14.50;99.90;;;;;;4982746;28;20038;-80
2022/04/12 10:45:26;;;;;;;9.45;8.45;;;14.60;99.90;;;;;;4983075;28;20486;-80
2022/04/12 10:47:56;;;;;;;15.07;8.98;;;14.60;99.90;;;;;;4984218;28;20034;-80
2022/04/12 10:50:21;;;;;;;12.07;8.55;;;14.70;99.90;;;;;;4978901;28;20118;-80
2022/04/12 10:52:49;;;;;;;9.10;7.93;;;14.80;99.90;;;;;;4986491;28;20054;-80
2022/04/12 10:55:23;;;;;;;8.63;7.72;;;14.90;99.90;;;;;;4983718;28;20046;-80
2022/04/12 10:57:50;;;;;;;12.30;7.65;;;15.00;99.90;;;;;;4983464;28;20078;-81
2022/04/12 11:00:20;;;;;;;9.70;7.72;;;15.10;99.90;;;;;;4980885;28;20141;-80
2022/04/12 11:02:46;;;;;;;11.23;8.27;;;15.20;99.90;;;;;;4978457;28;20133;-80
2022/04/12 11:05:44;;;;;;;10.88;7.78;;;15.40;99.90;;;;;;4961800;28;20165;-80
2022/04/12 11:08:15;;;;;;;11.40;7.07;;;16.10;99.90;;;;;;4953648;28;20597;-80
2022/04/12 11:10:42;;;;;;;11.55;7.28;;;15.60;99.90;;;;;;4981221;28;20051;-81
2022/04/12 11:13:11;;;;;;;12.65;8.52;;;15.70;99.90;;;;;;4978528;28;20046;-80
2022/04/12 11:15:53;;;;;;;9.63;6.97;;;15.90;99.90;;;;;;4978863;28;20174;-80
2022/04/12 11:18:18;;;;;;;13.43;7.65;;;15.90;99.90;;;;;;4979240;28;20054;-81
2022/04/12 11:20:46;;;;;;;10.18;7.68;;;16.00;99.90;;;;;;4982456;28;20035;-81
2022/04/12 11:23:15;;;;;;;8.77;6.85;;;16.10;99.90;;;;;;4983451;28;20053;-81
2022/04/12 11:25:51;;;;;;;10.70;7.78;;;16.30;99.90;;;;;;4980825;28;20088;-81
2022/04/12 11:28:22;;;;;;;8.05;6.90;;;16.40;99.90;;;;;;4631860;28;10000837;-81
2022/04/12 11:30:58;;;;;;;11.80;8.20;;;16.40;99.90;;;;;;4954701;28;20156;-81
2022/04/12 11:33:28;;;;;;;8.95;7.25;;;16.50;99.90;;;;;;4962648;28;20618;-79
2022/04/12 11:35:55;;;;;;;11.48;7.68;;;16.60;99.90;;;;;;4977824;28;20121;-79
2022/04/12 11:38:22;;;;;;;9.02;7.72;;;16.70;99.90;;;;;;4973915;28;20043;-79
2022/04/12 11:40:49;;;;;;;9.82;7.40;;;16.80;99.90;;;;;;4976827;28;20089;-79
2022/04/12 11:43:25;;;;;;;10.48;8.13;;;16.80;99.90;;;;;;4977047;28;20057;-80
2022/04/12 11:45:56;;;;;;;10.93;7.93;;;16.90;99.90;;;;;;4973059;28;20483;-80
2022/04/12 11:48:26;;;;;;;9.93;7.90;;;16.90;99.90;;;;;;4966797;28;20051;-79
2022/04/12 11:50:52;;;;;;;9.48;7.65;;;16.90;99.50;;;;;;4983263;28;20046;-79
2022/04/12 11:53:20;;;;;;;8.70;7.80;;;16.90;99.90;;;;;;4986096;28;20101;-79
2022/04/12 11:55:46;;;;;;;10.98;7.82;;;16.80;99.40;;;;;;4980941;28;20085;-81
2022/04/12 11:58:12;;;;;;;12.40;7.95;;;16.80;99.30;;;;;;4971461;28;20483;-81
2022/04/12 12:00:37;;;;;;;9.95;8.25;;;16.70;99.70;;;;;;4985446;28;20042;-81
2022/04/12 12:03:03;;;;;;;9.35;8.38;;;16.70;99.90;;;;;;4981873;28;20054;-81
2022/04/12 12:05:31;;;;;;;10.35;8.48;;;16.80;99.70;;;;;;4984146;28;20085;-79
2022/04/12 12:07:58;;;;;;;8.55;7.18;;;16.80;99.70;;;;;;4989843;28;20038;-81
2022/04/12 12:10:23;;;;;;;10.88;8.07;;;16.90;99.70;;;;;;4985232;28;20039;-81
2022/04/12 12:12:49;;;;;;;11.23;7.68;;;17.00;99.70;;;;;;4986159;28;20046;-81
2022/04/12 12:15:20;;;;;;;9.75;7.68;;;17.00;99.40;;;;;;4984252;28;20043;-81
2022/04/12 12:17:46;;;;;;;9.85;7.65;;;17.10;99.20;;;;;;4986846;28;20227;-81
2022/04/12 12:20:15;;;;;;;10.00;7.68;;;17.10;99.00;;;;;;4985426;28;20130;-81
2022/04/12 12:22:42;;;;;;;11.10;8.20;;;17.20;99.00;;;;;;4967873;28;20478;-81
2022/04/12 12:25:09;;;;;;;12.07;7.28;;;17.30;99.10;;;;;;4978228;28;20057;-81
2022/04/12 12:27:41;;;;;;;8.50;6.40;;;17.40;99.20;;;;;;4983621;28;20560;-81
2022/04/12 12:30:19;;;;;;;9.95;7.15;;;17.50;98.80;;;;;;4985751;28;20462;-81
2022/04/12 12:32:45;;;;;;;8.38;6.65;;;17.60;98.50;;;;;;4967639;28;20415;-81
2022/04/12 12:35:15;;;;;;;10.50;6.72;;;17.70;98.50;;;;;;4987025;28;20129;-79
2022/04/12 12:37:44;;;;;;;9.68;7.25;;;17.80;98.30;;;;;;4986881;28;20125;-81
2022/04/12 12:40:24;;;;;;;11.95;7.05;;;17.90;97.90;;;;;;4985423;28;20042;-81
2022/04/12 12:42:51;;;;;;;9.45;7.22;;;18.00;97.90;;;;;;4984923;28;20042;-79
2022/04/12 12:45:22;;;;;;;8.95;6.43;;;18.00;98.00;;;;;;4988271;28;20050;-79
2022/04/12 12:47:57;;;;;;;13.57;8.05;;;18.00;98.00;;;;;;4990267;28;20038;-82